الصفحة الرئيسية
METAR-TAF:

METAR-TAF

مطار :

مابوتو, موزمبيق

دائرة عرض: 25-55S, خط طول: 032-34E, ارتفاع: 39 متر

مراقبة الطقس الحالي

تاريخ ووقت الإصدار 44 دقيقة قبل الساعة 03:00UTC
ريح 3 عقدة من الجنوب الغربي
درجة الحرارة 21°درجة مئوية
الرطوبة 83%
ضغط 1016 hPa
الرؤية 10 كم أو أكثر
غيوم متفرقة على ارتفاع 2000 قدم

METAR: FQMA 190300Z 23003KT 9999 SCT020 21/18 Q1016 NOSIG

زمن: 05:44 (03:44 UTC)

توقعات

تاريخ ووقت الإصدار 11ساعات و 44 دقيقة قبل الساعة 16:00UTC
التوقعات صالحة من18 الساعة 18 UTC إلى 19 الساعة 24 UTC
ريح 10 عقدة من الشمال/الشمال الشرقي
الرؤية 10 كم أو أكثر
غيوم قليلة على ارتفاع 3000 قدم
أصبح
من 19 الساعة 00 UTC إلى 19 الساعة 02 UTC
ريح 10 عقدة من الشمال الغربي
أصبح
من 19 الساعة 12 UTC إلى 19 الساعة 14 UTC
ريح 3 عقدةمن اتجاهات متغيرة
أصبح
من 19 الساعة 18 UTC إلى 19 الساعة 20 UTC
ريح 10 عقدة من الشمال الشرقي

TAF: FQMA 181600Z 1818/1924 03010KT 9999 FEW030 BECMG 1900/1902 32010KT BECMG 1912/1914 VRB03KT BECMG 1918/1920 05010KT TN23/1903Z TX31/1913Z

أرصاد الطقس والتوقعات من أكثر من 4000 مطار (تقارير الطقس للمطار METAR والتنبؤ بالطقس بالمطارTAF).

المحطات المتاحة هي النقط الصفراء والحمراء على الخريطة.

حرك المؤشر فوق النقطة لمعرفة اسم المحطة.

ثم انقر لمعرفة أرصاد وتوقعات الطقس.

لتغيير الخارطة: اضغط على الأزرار الخضراء مع رمز الصليب الأسود للتكبير. على الزر الأخضر مع شرطة للتصغير، أو على الأسهم الخضراء للخرائط المجاورة.


METAR-TAF: